Terminal Aerodrome Forecast
Issued by NWS

Current Version | Previous Version | Text Only | Print | Product List | Glossary On
Versions: 1 2 3 4 5 6 7 8 9 10 11 12 13 14 15
000
FTUS45 KMSO 291720
TAFSMN
TAF
KSMN 291720Z 2918/3018 VRB03KT P6SM SKC
     FM292300 21010G16KT P6SM VCTS BKN100CB
     FM300200 36010KT P6SM VCSH SCT080 BKN100
     FM300500 VRB06KT P6SM BKN100
      AMD LTD TO CLD VIS AND WIND=

USA.gov is the U.S. government's official web portal to all federal, state and local government web resources and services.